Terminal Aerodrome Forecast
Issued by NWS

Home | Current Version | Previous Version | Text Only | Print | Product List | Glossary On
Versions: 1 2 3 4 5 6 7 8 9 10 11 12 13 14 15
000
FTUS42 TJSJ 282340
TAFNCM
TAF
TNCM 282340Z 2900/2924 11006KT P6SM VCSH FEW019 BKN040
     FM290600 11012G18KT P6SM VCTS SCT015CB BKN035
     FM291400 13008KT P6SM VCSH SCT018 BKN040=

USA.gov is the U.S. government's official web portal to all federal, state and local government web resources and services.